sensor_id;sensor_type;location;lat;lon;timestamp;pressure;altitude;pressure_sealevel;temperature;humidity
55759;BME280;41678;52.126;20.664;2022-12-28T00:01:30;101039.13;;;3.20;98.09
55759;BME280;41678;52.126;20.664;2022-12-28T00:06:50;101027.97;;;3.24;98.44
55759;BME280;41678;52.126;20.664;2022-12-28T00:12:09;101027.97;;;3.24;98.34
55759;BME280;41678;52.126;20.664;2022-12-28T00:17:32;101027.88;;;3.21;97.90
55759;BME280;41678;52.126;20.664;2022-12-28T00:22:51;101025.16;;;3.18;98.18
55759;BME280;41678;52.126;20.664;2022-12-28T00:28:11;101031.09;;;3.14;98.05
55759;BME280;41678;52.126;20.664;2022-12-28T00:33:30;101026.94;;;3.19;98.08
55759;BME280;41678;52.126;20.664;2022-12-28T00:38:50;101032.97;;;3.18;97.89
55759;BME280;41678;52.126;20.664;2022-12-28T00:44:10;101038.13;;;3.17;98.38
55759;BME280;41678;52.126;20.664;2022-12-28T00:49:29;101043.28;;;3.15;98.36
55759;BME280;41678;52.126;20.664;2022-12-28T00:54:48;101046.72;;;3.14;97.94
55759;BME280;41678;52.126;20.664;2022-12-28T01:00:09;101042.31;;;3.11;98.17
55759;BME280;41678;52.126;20.664;2022-12-28T01:05:29;101044.78;;;3.07;97.94
55759;BME280;41678;52.126;20.664;2022-12-28T01:10:49;101046.53;;;3.08;98.08
55759;BME280;41678;52.126;20.664;2022-12-28T01:16:31;101045.66;;;3.07;98.07
55759;BME280;41678;52.126;20.664;2022-12-28T01:21:51;101037.75;;;3.04;97.97
55759;BME280;41678;52.126;20.664;2022-12-28T01:27:11;101041.03;;;2.98;98.01
55759;BME280;41678;52.126;20.664;2022-12-28T01:32:31;101039.19;;;2.94;98.08
55759;BME280;41678;52.126;20.664;2022-12-28T01:37:50;101030.44;;;2.92;98.43
55759;BME280;41678;52.126;20.664;2022-12-28T01:43:13;101022.59;;;2.91;98.30
55759;BME280;41678;52.126;20.664;2022-12-28T01:48:33;101026.84;;;2.89;98.24
55759;BME280;41678;52.126;20.664;2022-12-28T01:53:55;101025.88;;;2.85;98.34
55759;BME280;41678;52.126;20.664;2022-12-28T01:59:19;101026.75;;;2.86;98.39
55759;BME280;41678;52.126;20.664;2022-12-28T02:04:40;101021.31;;;2.78;98.22
55759;BME280;41678;52.126;20.664;2022-12-28T02:10:00;101015.47;;;2.58;98.24
55759;BME280;41678;52.126;20.664;2022-12-28T02:15:22;101017.91;;;2.53;98.60
55759;BME280;41678;52.126;20.664;2022-12-28T02:32:02;100995.16;;;2.20;98.60
55759;BME280;41678;52.126;20.664;2022-12-28T02:37:35;100992.34;;;2.14;98.68
55759;BME280;41678;52.126;20.664;2022-12-28T02:42:59;101003.25;;;2.03;98.43
55759;BME280;41678;52.126;20.664;2022-12-28T02:48:20;100988.34;;;1.97;98.49
55759;BME280;41678;52.126;20.664;2022-12-28T03:00:11;100989.75;;;1.89;98.44
55759;BME280;41678;52.126;20.664;2022-12-28T03:11:18;100989.50;;;1.81;98.58
55759;BME280;41678;52.126;20.664;2022-12-28T03:16:41;100996.06;;;1.72;98.65
55759;BME280;41678;52.126;20.664;2022-12-28T03:22:23;100977.44;;;1.59;98.75
55759;BME280;41678;52.126;20.664;2022-12-28T03:28:05;100989.47;;;1.55;98.70
55759;BME280;41678;52.126;20.664;2022-12-28T03:33:47;100971.13;;;1.51;98.71
55759;BME280;41678;52.126;20.664;2022-12-28T03:39:29;100957.50;;;1.34;98.76
55759;BME280;41678;52.126;20.664;2022-12-28T03:44:54;100953.97;;;1.32;99.09
55759;BME280;41678;52.126;20.664;2022-12-28T03:50:16;100943.28;;;1.22;99.16
55759;BME280;41678;52.126;20.664;2022-12-28T03:55:37;100933.41;;;1.13;99.08
55759;BME280;41678;52.126;20.664;2022-12-28T04:00:58;100930.50;;;1.04;99.11
55759;BME280;41678;52.126;20.664;2022-12-28T04:06:18;100914.09;;;1.05;99.08
55759;BME280;41678;52.126;20.664;2022-12-28T04:11:38;100914.03;;;1.04;99.45
55759;BME280;41678;52.126;20.664;2022-12-28T04:17:00;100923.13;;;0.92;99.17
55759;BME280;41678;52.126;20.664;2022-12-28T04:22:19;100911.22;;;0.97;99.12
55759;BME280;41678;52.126;20.664;2022-12-28T04:27:39;100914.28;;;0.87;99.29
55759;BME280;41678;52.126;20.664;2022-12-28T04:33:07;100922.78;;;0.83;99.29
55759;BME280;41678;52.126;20.664;2022-12-28T04:38:28;100930.47;;;0.81;98.82
55759;BME280;41678;52.126;20.664;2022-12-28T04:43:47;100929.50;;;0.78;98.90
55759;BME280;41678;52.126;20.664;2022-12-28T04:49:07;100905.56;;;0.62;98.97
55759;BME280;41678;52.126;20.664;2022-12-28T04:54:26;100912.34;;;0.59;99.27
55759;BME280;41678;52.126;20.664;2022-12-28T04:59:46;100895.88;;;0.58;99.32
55759;BME280;41678;52.126;20.664;2022-12-28T05:05:05;100900.13;;;0.56;99.29
55759;BME280;41678;52.126;20.664;2022-12-28T05:10:25;100898.97;;;0.48;99.34
55759;BME280;41678;52.126;20.664;2022-12-28T05:15:45;100898.59;;;0.38;99.00
55759;BME280;41678;52.126;20.664;2022-12-28T05:21:11;100904.41;;;0.33;99.69
55759;BME280;41678;52.126;20.664;2022-12-28T05:26:31;100905.22;;;0.32;99.61
55759;BME280;41678;52.126;20.664;2022-12-28T05:31:50;100899.75;;;0.24;99.31
55759;BME280;41678;52.126;20.664;2022-12-28T05:37:10;100895.31;;;0.21;99.29
55759;BME280;41678;52.126;20.664;2022-12-28T05:42:29;100892.56;;;0.17;99.29
55759;BME280;41678;52.126;20.664;2022-12-28T05:47:48;100888.88;;;0.11;99.49
55759;BME280;41678;52.126;20.664;2022-12-28T05:53:08;100883.06;;;0.17;99.59
55759;BME280;41678;52.126;20.664;2022-12-28T05:58:27;100885.72;;;0.19;99.35
55759;BME280;41678;52.126;20.664;2022-12-28T06:03:52;100869.94;;;0.12;99.80
55759;BME280;41678;52.126;20.664;2022-12-28T06:09:12;100866.66;;;0.17;99.80
55759;BME280;41678;52.126;20.664;2022-12-28T06:14:32;100873.22;;;0.08;99.95
55759;BME280;41678;52.126;20.664;2022-12-28T06:19:52;100870.72;;;0.10;100.00
55759;BME280;41678;52.126;20.664;2022-12-28T06:25:12;100866.66;;;0.17;99.76
55759;BME280;41678;52.126;20.664;2022-12-28T06:30:31;100862.31;;;0.16;99.83
55759;BME280;41678;52.126;20.664;2022-12-28T06:35:51;100854.28;;;0.09;99.84
55759;BME280;41678;52.126;20.664;2022-12-28T06:41:12;100863.09;;;0.14;99.79
55759;BME280;41678;52.126;20.664;2022-12-28T06:46:31;100857.81;;;0.11;100.00
55759;BME280;41678;52.126;20.664;2022-12-28T06:51:51;100861.09;;;0.07;99.88
55759;BME280;41678;52.126;20.664;2022-12-28T06:57:11;100850.63;;;0.04;99.98
55759;BME280;41678;52.126;20.664;2022-12-28T07:02:30;100842.25;;;0.11;99.93
55759;BME280;41678;52.126;20.664;2022-12-28T07:07:49;100822.97;;;0.03;100.00
55759;BME280;41678;52.126;20.664;2022-12-28T07:13:09;100819.66;;;0.07;100.00
55759;BME280;41678;52.126;20.664;2022-12-28T07:18:28;100820.03;;;0.17;99.93
55759;BME280;41678;52.126;20.664;2022-12-28T07:23:49;100820.03;;;0.17;100.00
55759;BME280;41678;52.126;20.664;2022-12-28T07:29:09;100819.06;;;0.14;100.00
55759;BME280;41678;52.126;20.664;2022-12-28T07:34:28;100825.44;;;0.23;100.00
55759;BME280;41678;52.126;20.664;2022-12-28T07:39:48;100822.03;;;0.24;100.00
55759;BME280;41678;52.126;20.664;2022-12-28T07:45:13;100810.22;;;0.31;100.00
55759;BME280;41678;52.126;20.664;2022-12-28T07:50:33;100811.25;;;0.36;100.00
55759;BME280;41678;52.126;20.664;2022-12-28T07:55:56;100816.69;;;0.42;100.00
55759;BME280;41678;52.126;20.664;2022-12-28T08:01:18;100818.69;;;0.49;100.00
55759;BME280;41678;52.126;20.664;2022-12-28T08:06:40;100819.22;;;0.63;100.00
55759;BME280;41678;52.126;20.664;2022-12-28T08:12:02;100815.09;;;0.68;100.00
55759;BME280;41678;52.126;20.664;2022-12-28T08:17:22;100812.03;;;0.79;100.00
55759;BME280;41678;52.126;20.664;2022-12-28T08:22:41;100809.88;;;0.91;100.00
55759;BME280;41678;52.126;20.664;2022-12-28T08:28:01;100807.50;;;0.97;100.00
55759;BME280;41678;52.126;20.664;2022-12-28T08:33:21;100810.69;;;1.15;100.00
55759;BME280;41678;52.126;20.664;2022-12-28T08:38:41;100814.66;;;1.29;100.00
55759;BME280;41678;52.126;20.664;2022-12-28T08:44:02;100814.97;;;1.38;100.00
55759;BME280;41678;52.126;20.664;2022-12-28T08:49:22;100805.78;;;1.48;100.00
55759;BME280;41678;52.126;20.664;2022-12-28T08:54:42;100800.91;;;1.58;100.00
55759;BME280;41678;52.126;20.664;2022-12-28T09:00:04;100801.25;;;1.68;100.00
55759;BME280;41678;52.126;20.664;2022-12-28T09:05:24;100807.59;;;1.77;100.00
55759;BME280;41678;52.126;20.664;2022-12-28T09:10:44;100794.75;;;1.81;100.00
55759;BME280;41678;52.126;20.664;2022-12-28T09:16:06;100808.19;;;1.95;100.00
55759;BME280;41678;52.126;20.664;2022-12-28T09:21:30;100798.88;;;2.02;100.00
55759;BME280;41678;52.126;20.664;2022-12-28T09:26:50;100787.06;;;2.12;99.90
55759;BME280;41678;52.126;20.664;2022-12-28T09:32:11;100767.28;;;2.17;100.00
55759;BME280;41678;52.126;20.664;2022-12-28T09:37:30;100764.06;;;2.24;100.00
55759;BME280;41678;52.126;20.664;2022-12-28T09:42:50;100741.69;;;2.30;99.65
55759;BME280;41678;52.126;20.664;2022-12-28T09:48:13;100741.06;;;2.38;99.65
55759;BME280;41678;52.126;20.664;2022-12-28T09:53:35;100729.13;;;2.45;99.62
55759;BME280;41678;52.126;20.664;2022-12-28T09:58:55;100708.47;;;2.50;99.44
55759;BME280;41678;52.126;20.664;2022-12-28T10:04:15;100701.72;;;2.57;99.69
55759;BME280;41678;52.126;20.664;2022-12-28T10:09:34;100694.94;;;2.62;98.98
55759;BME280;41678;52.126;20.664;2022-12-28T10:14:54;100678.47;;;2.63;99.19
55759;BME280;41678;52.126;20.664;2022-12-28T10:20:16;100682.22;;;2.73;99.24
55759;BME280;41678;52.126;20.664;2022-12-28T10:25:36;100685.00;;;2.79;98.69
55759;BME280;41678;52.126;20.664;2022-12-28T10:31:10;100679.00;;;2.81;98.75
55759;BME280;41678;52.126;20.664;2022-12-28T10:36:33;100677.44;;;2.88;98.95
55759;BME280;41678;52.126;20.664;2022-12-28T10:41:56;100659.31;;;2.91;98.58
55759;BME280;41678;52.126;20.664;2022-12-28T10:47:43;100669.75;;;2.93;97.73
55759;BME280;41678;52.126;20.664;2022-12-28T10:53:39;100633.31;;;2.91;98.21
55759;BME280;41678;52.126;20.664;2022-12-28T11:04:29;100610.94;;;3.00;98.10
55759;BME280;41678;52.126;20.664;2022-12-28T11:09:48;100590.00;;;2.93;97.98
55759;BME280;41678;52.126;20.664;2022-12-28T11:15:13;100590.19;;;3.03;97.64
55759;BME280;41678;52.126;20.664;2022-12-28T11:20:37;100591.88;;;3.01;97.95
55759;BME280;41678;52.126;20.664;2022-12-28T11:25:58;100592.00;;;3.05;97.84
55759;BME280;41678;52.126;20.664;2022-12-28T11:31:22;100588.63;;;3.08;98.12
55759;BME280;41678;52.126;20.664;2022-12-28T11:36:45;100583.41;;;3.08;97.17
55759;BME280;41678;52.126;20.664;2022-12-28T11:42:06;100573.00;;;3.08;97.58
55759;BME280;41678;52.126;20.664;2022-12-28T11:47:29;100552.25;;;3.11;97.30
55759;BME280;41678;52.126;20.664;2022-12-28T11:52:51;100547.16;;;3.16;97.44
55759;BME280;41678;52.126;20.664;2022-12-28T12:04:07;100527.31;;;3.21;96.87
55759;BME280;41678;52.126;20.664;2022-12-28T12:14:56;100494.38;;;3.21;96.79
55759;BME280;41678;52.126;20.664;2022-12-28T12:20:30;100487.53;;;3.26;97.06
55759;BME280;41678;52.126;20.664;2022-12-28T12:25:52;100470.22;;;3.27;96.79
55759;BME280;41678;52.126;20.664;2022-12-28T12:31:29;100458.97;;;3.30;96.44
55759;BME280;41678;52.126;20.664;2022-12-28T12:37:05;100460.72;;;3.31;96.28
55759;BME280;41678;52.126;20.664;2022-12-28T12:48:27;100450.47;;;3.37;96.33
55759;BME280;41678;52.126;20.664;2022-12-28T12:54:00;100455.66;;;3.37;96.60
55759;BME280;41678;52.126;20.664;2022-12-28T12:59:37;100438.25;;;3.34;96.47
55759;BME280;41678;52.126;20.664;2022-12-28T13:05:02;100413.28;;;3.43;96.04
55759;BME280;41678;52.126;20.664;2022-12-28T13:10:26;100408.06;;;3.44;96.47
55759;BME280;41678;52.126;20.664;2022-12-28T13:16:01;100406.22;;;3.38;96.13
55759;BME280;41678;52.126;20.664;2022-12-28T13:21:28;100399.31;;;3.40;95.94
55759;BME280;41678;52.126;20.664;2022-12-28T13:26:49;100401.97;;;3.42;96.16
55759;BME280;41678;52.126;20.664;2022-12-28T13:32:29;100380.19;;;3.38;96.20
55759;BME280;41678;52.126;20.664;2022-12-28T13:48:50;100368.97;;;3.41;95.65
55759;BME280;41678;52.126;20.664;2022-12-28T13:54:12;100364.72;;;3.45;95.40
55759;BME280;41678;52.126;20.664;2022-12-28T13:59:33;100363.78;;;3.41;95.76
55759;BME280;41678;52.126;20.664;2022-12-28T14:04:53;100357.69;;;3.40;95.54
55759;BME280;41678;52.126;20.664;2022-12-28T14:10:13;100343.59;;;3.29;95.57
55759;BME280;41678;52.126;20.664;2022-12-28T14:15:35;100335.69;;;3.24;95.29
55759;BME280;41678;52.126;20.664;2022-12-28T14:20:56;100341.00;;;3.31;95.34
55759;BME280;41678;52.126;20.664;2022-12-28T14:26:21;100326.25;;;3.30;95.60
55759;BME280;41678;52.126;20.664;2022-12-28T14:31:41;100341.91;;;3.33;95.20
55759;BME280;41678;52.126;20.664;2022-12-28T14:37:01;100342.84;;;3.35;95.45
55759;BME280;41678;52.126;20.664;2022-12-28T14:42:23;100335.94;;;3.37;95.04
55759;BME280;41678;52.126;20.664;2022-12-28T14:47:45;100314.22;;;3.36;95.34
55759;BME280;41678;52.126;20.664;2022-12-28T14:53:14;100299.47;;;3.35;95.63
55759;BME280;41678;52.126;20.664;2022-12-28T14:58:45;100300.38;;;3.37;95.03
55759;BME280;41678;52.126;20.664;2022-12-28T15:04:06;100302.06;;;3.35;95.60
55759;BME280;41678;52.126;20.664;2022-12-28T15:09:26;100309.00;;;3.35;95.77
55759;BME280;41678;52.126;20.664;2022-12-28T15:14:47;100304.81;;;3.43;95.32
55759;BME280;41678;52.126;20.664;2022-12-28T15:20:07;100309.28;;;3.50;94.83
55759;BME280;41678;52.126;20.664;2022-12-28T15:25:27;100279.63;;;3.42;95.38
55759;BME280;41678;52.126;20.664;2022-12-28T15:30:46;100290.13;;;3.47;95.14
55759;BME280;41678;52.126;20.664;2022-12-28T15:36:09;100306.59;;;3.47;94.81
55759;BME280;41678;52.126;20.664;2022-12-28T15:41:29;100282.22;;;3.42;95.65
55759;BME280;41678;52.126;20.664;2022-12-28T15:47:08;100286.63;;;3.46;94.70
55759;BME280;41678;52.126;20.664;2022-12-28T15:52:29;100278.06;;;3.52;95.13
55759;BME280;41678;52.126;20.664;2022-12-28T15:57:49;100285.84;;;3.50;95.58
55759;BME280;41678;52.126;20.664;2022-12-28T16:03:09;100280.56;;;3.47;95.04
55759;BME280;41678;52.126;20.664;2022-12-28T16:08:28;100278.81;;;3.46;94.98
55759;BME280;41678;52.126;20.664;2022-12-28T16:13:53;100277.19;;;3.51;95.14
55759;BME280;41678;52.126;20.664;2022-12-28T16:19:14;100271.25;;;3.60;94.81
55759;BME280;41678;52.126;20.664;2022-12-28T16:24:33;100266.88;;;3.58;94.67
55759;BME280;41678;52.126;20.664;2022-12-28T16:29:54;100259.91;;;3.57;94.51
55759;BME280;41678;52.126;20.664;2022-12-28T16:35:14;100259.06;;;3.58;94.60
55759;BME280;41678;52.126;20.664;2022-12-28T16:40:40;100271.34;;;3.66;94.04
55759;BME280;41678;52.126;20.664;2022-12-28T16:46:05;100278.31;;;3.66;94.06
55759;BME280;41678;52.126;20.664;2022-12-28T16:51:24;100264.44;;;3.67;94.32
55759;BME280;41678;52.126;20.664;2022-12-28T16:56:45;100254.91;;;3.69;93.92
55759;BME280;41678;52.126;20.664;2022-12-28T17:02:05;100245.34;;;3.69;93.95
55759;BME280;41678;52.126;20.664;2022-12-28T17:07:26;100247.09;;;3.71;94.63
55759;BME280;41678;52.126;20.664;2022-12-28T17:12:46;100266.38;;;3.80;94.54
55759;BME280;41678;52.126;20.664;2022-12-28T17:18:05;100245.50;;;3.79;94.37
55759;BME280;41678;52.126;20.664;2022-12-28T17:23:25;100242.84;;;3.74;93.78
55759;BME280;41678;52.126;20.664;2022-12-28T17:28:45;100230.69;;;3.76;93.90
55759;BME280;41678;52.126;20.664;2022-12-28T17:34:05;100243.03;;;3.87;94.13
55759;BME280;41678;52.126;20.664;2022-12-28T17:39:24;100246.44;;;3.82;93.94
55759;BME280;41678;52.126;20.664;2022-12-28T17:44:44;100239.59;;;3.91;93.99
55759;BME280;41678;52.126;20.664;2022-12-28T17:50:05;100237.84;;;3.90;94.11
55759;BME280;41678;52.126;20.664;2022-12-28T17:55:25;100221.38;;;3.89;93.47
55759;BME280;41678;52.126;20.664;2022-12-28T18:00:45;100218.75;;;3.89;93.42
55759;BME280;41678;52.126;20.664;2022-12-28T18:06:05;100222.25;;;3.91;93.07
55759;BME280;41678;52.126;20.664;2022-12-28T18:11:25;100218.91;;;4.00;93.57
55759;BME280;41678;52.126;20.664;2022-12-28T18:16:45;100231.09;;;4.01;92.78
55759;BME280;41678;52.126;20.664;2022-12-28T18:22:05;100229.41;;;4.06;93.64
55759;BME280;41678;52.126;20.664;2022-12-28T18:27:25;100226.84;;;4.08;93.65
55759;BME280;41678;52.126;20.664;2022-12-28T18:32:45;100230.38;;;4.13;93.31
55759;BME280;41678;52.126;20.664;2022-12-28T18:38:04;100229.53;;;4.16;93.65
55759;BME280;41678;52.126;20.664;2022-12-28T18:43:24;100219.09;;;4.13;94.02
55759;BME280;41678;52.126;20.664;2022-12-28T18:48:44;100219.13;;;4.16;93.72
55759;BME280;41678;52.126;20.664;2022-12-28T18:54:03;100215.72;;;4.23;93.43
55759;BME280;41678;52.126;20.664;2022-12-28T18:59:24;100216.63;;;4.23;93.26
55759;BME280;41678;52.126;20.664;2022-12-28T19:04:43;100212.25;;;4.24;93.75
55759;BME280;41678;52.126;20.664;2022-12-28T19:10:03;100201.91;;;4.27;93.28
55759;BME280;41678;52.126;20.664;2022-12-28T19:15:34;100202.72;;;4.24;93.58
55759;BME280;41678;52.126;20.664;2022-12-28T19:20:57;100204.44;;;4.24;93.06
55759;BME280;41678;52.126;20.664;2022-12-28T19:26:18;100220.16;;;4.29;93.18
55759;BME280;41678;52.126;20.664;2022-12-28T19:31:37;100188.00;;;4.28;92.42
55759;BME280;41678;52.126;20.664;2022-12-28T19:36:57;100193.22;;;4.28;93.05
55759;BME280;41678;52.126;20.664;2022-12-28T19:42:17;100188.00;;;4.30;93.09
55759;BME280;41678;52.126;20.664;2022-12-28T19:47:37;100193.22;;;4.28;93.65
55759;BME280;41678;52.126;20.664;2022-12-28T19:52:56;100186.31;;;4.30;93.57
55759;BME280;41678;52.126;20.664;2022-12-28T19:58:16;100176.72;;;4.31;93.85
55759;BME280;41678;52.126;20.664;2022-12-28T20:03:38;100180.19;;;4.30;93.26
55759;BME280;41678;52.126;20.664;2022-12-28T20:08:59;100168.03;;;4.27;93.51
55759;BME280;41678;52.126;20.664;2022-12-28T20:14:19;100181.94;;;4.31;93.88
55759;BME280;41678;52.126;20.664;2022-12-28T20:19:38;100180.19;;;4.30;93.96
55759;BME280;41678;52.126;20.664;2022-12-28T20:24:57;100185.53;;;4.39;93.20
55759;BME280;41678;52.126;20.664;2022-12-28T20:30:17;100181.09;;;4.30;93.95
55759;BME280;41678;52.126;20.664;2022-12-28T20:35:36;100179.41;;;4.35;93.93
55759;BME280;41678;52.126;20.664;2022-12-28T20:41:11;100195.13;;;4.42;93.64
55759;BME280;41678;52.126;20.664;2022-12-28T20:46:52;100192.44;;;4.35;93.80
55759;BME280;41678;52.126;20.664;2022-12-28T20:52:12;100193.38;;;4.41;93.79
55759;BME280;41678;52.126;20.664;2022-12-28T20:57:32;100186.41;;;4.39;93.83
55759;BME280;41678;52.126;20.664;2022-12-28T21:02:51;100183.00;;;4.44;93.72
55759;BME280;41678;52.126;20.664;2022-12-28T21:08:10;100168.25;;;4.49;93.82
55759;BME280;41678;52.126;20.664;2022-12-28T21:13:30;100179.53;;;4.45;93.71
55759;BME280;41678;52.126;20.664;2022-12-28T21:18:50;100165.66;;;4.49;93.73
55759;BME280;41678;52.126;20.664;2022-12-28T21:24:09;100152.63;;;4.49;93.87
55759;BME280;41678;52.126;20.664;2022-12-28T21:29:31;100154.41;;;4.53;93.81
55759;BME280;41678;52.126;20.664;2022-12-28T21:34:50;100146.53;;;4.48;94.04
55759;BME280;41678;52.126;20.664;2022-12-28T21:40:10;100143.06;;;4.51;93.88
55759;BME280;41678;52.126;20.664;2022-12-28T21:45:31;100143.06;;;4.51;94.08
55759;BME280;41678;52.126;20.664;2022-12-28T21:50:51;100145.63;;;4.45;93.92
55759;BME280;41678;52.126;20.664;2022-12-28T21:56:12;100149.19;;;4.51;93.40
55759;BME280;41678;52.126;20.664;2022-12-28T22:01:32;100152.69;;;4.53;93.52
55759;BME280;41678;52.126;20.664;2022-12-28T22:07:12;100144.00;;;4.54;94.27
55759;BME280;41678;52.126;20.664;2022-12-28T22:12:34;100132.66;;;4.51;94.24
55759;BME280;41678;52.126;20.664;2022-12-28T22:17:59;100143.09;;;4.54;94.51
55759;BME280;41678;52.126;20.664;2022-12-28T22:23:20;100141.31;;;4.47;94.53
55759;BME280;41678;52.126;20.664;2022-12-28T22:28:40;100133.50;;;4.48;94.50
55759;BME280;41678;52.126;20.664;2022-12-28T22:33:59;100143.06;;;4.48;94.22
55759;BME280;41678;52.126;20.664;2022-12-28T22:39:19;100131.75;;;4.49;93.98
55759;BME280;41678;52.126;20.664;2022-12-28T22:44:38;100120.47;;;4.50;93.83
55759;BME280;41678;52.126;20.664;2022-12-28T22:49:57;100124.84;;;4.54;94.23
55759;BME280;41678;52.126;20.664;2022-12-28T22:55:17;100114.38;;;4.48;94.03
55759;BME280;41678;52.126;20.664;2022-12-28T23:00:36;100110.94;;;4.52;94.08
55759;BME280;41678;52.126;20.664;2022-12-28T23:05:56;100107.50;;;4.54;93.81
55759;BME280;41678;52.126;20.664;2022-12-28T23:11:16;100106.59;;;4.54;93.60
55759;BME280;41678;52.126;20.664;2022-12-28T23:16:55;100102.28;;;4.54;93.79
55759;BME280;41678;52.126;20.664;2022-12-28T23:22:24;100106.63;;;4.56;93.28
55759;BME280;41678;52.126;20.664;2022-12-28T23:28:06;100096.31;;;4.65;93.58
55759;BME280;41678;52.126;20.664;2022-12-28T23:33:26;100098.00;;;4.61;93.61
55759;BME280;41678;52.126;20.664;2022-12-28T23:38:45;100094.44;;;4.54;93.49
55759;BME280;41678;52.126;20.664;2022-12-28T23:44:05;100090.13;;;4.55;93.72
55759;BME280;41678;52.126;20.664;2022-12-28T23:49:24;100077.09;;;4.58;94.13
55759;BME280;41678;52.126;20.664;2022-12-28T23:54:43;100075.34;;;4.59;94.01
